createdAt,value
2023-04-28T00:01:17.347Z,72.90
2023-04-28T00:03:46.129Z,59.30
2023-04-28T00:06:15.063Z,51.90
2023-04-28T00:08:43.729Z,42.80
2023-04-28T00:11:12.389Z,43.20
2023-04-28T00:13:41.169Z,38.40
2023-04-28T00:16:09.810Z,38.70
2023-04-28T00:18:38.552Z,35.10
2023-04-28T00:21:07.317Z,41.80
2023-04-28T00:23:36.286Z,46.70
2023-04-28T00:26:05.034Z,54.00
2023-04-28T00:28:34.900Z,54.30
2023-04-28T00:31:10.786Z,68.00
2023-04-28T00:33:43.348Z,67.30
2023-04-28T00:36:12.301Z,62.40
2023-04-28T00:38:40.995Z,63.00
2023-04-28T00:41:11.339Z,57.40
2023-04-28T00:43:47.695Z,65.80
2023-04-28T00:46:30.680Z,63.20
2023-04-28T00:48:59.674Z,65.30
2023-04-28T00:51:29.226Z,73.10
2023-04-28T00:53:58.154Z,69.70
2023-04-28T00:56:28.404Z,66.40
2023-04-28T00:59:00.023Z,67.80
2023-04-28T01:01:29.434Z,63.80
2023-04-28T01:03:58.336Z,69.10
2023-04-28T01:06:28.694Z,54.20
2023-04-28T01:08:57.402Z,56.20
2023-04-28T01:11:26.031Z,54.00
2023-04-28T01:13:54.768Z,63.30
2023-04-28T01:16:23.680Z,83.10
2023-04-28T01:18:52.596Z,65.10
2023-04-28T01:21:33.920Z,63.80
2023-04-28T01:24:02.652Z,73.40
2023-04-28T01:26:31.296Z,73.50
2023-04-28T01:29:00.344Z,84.60
2023-04-28T01:31:31.174Z,69.60
2023-04-28T01:34:00.322Z,69.10
2023-04-28T01:36:29.036Z,61.20
2023-04-28T01:38:57.759Z,65.10
2023-04-28T01:41:26.587Z,58.40
2023-04-28T01:43:55.335Z,64.20
2023-04-28T01:46:24.130Z,53.40
2023-04-28T01:48:52.819Z,54.50
2023-04-28T01:51:21.538Z,48.20
2023-04-28T01:53:50.190Z,50.70
2023-04-28T01:56:18.865Z,47.30
2023-04-28T01:58:47.487Z,57.20
2023-04-28T02:01:16.195Z,50.10
2023-04-28T02:03:45.023Z,46.60
2023-04-28T02:06:13.854Z,58.70
2023-04-28T02:08:42.559Z,53.80
2023-04-28T02:11:11.215Z,55.70
2023-04-28T02:13:39.924Z,62.60
2023-04-28T02:16:08.613Z,62.40
2023-04-28T02:18:37.322Z,56.30
2023-04-28T02:21:11.221Z,59.60
2023-04-28T02:23:40.723Z,56.80
2023-04-28T02:26:09.376Z,61.30
2023-04-28T02:28:38.003Z,57.60
2023-04-28T02:31:11.700Z,52.40
2023-04-28T02:33:42.379Z,54.10
2023-04-28T02:36:11.466Z,50.10
2023-04-28T02:38:41.747Z,55.40
2023-04-28T02:41:10.788Z,56.00
2023-04-28T02:43:39.444Z,72.50
2023-04-28T02:46:08.417Z,64.20
2023-04-28T02:48:37.502Z,60.90
2023-04-28T02:51:06.250Z,55.50
2023-04-28T02:53:34.981Z,59.30
2023-04-28T02:56:04.684Z,54.70
2023-04-28T02:58:33.341Z,57.20
2023-04-28T03:01:02.080Z,54.50
2023-04-28T03:03:30.848Z,52.00
2023-04-28T03:05:59.725Z,52.80
2023-04-28T03:08:28.407Z,52.00
2023-04-28T03:10:57.085Z,51.40
2023-04-28T03:13:26.023Z,54.50
2023-04-28T03:15:54.678Z,64.60
2023-04-28T03:18:23.806Z,53.20
2023-04-28T03:20:52.458Z,51.80
2023-04-28T03:23:21.315Z,63.20
2023-04-28T03:25:50.030Z,56.00
2023-04-28T03:28:18.670Z,49.40
2023-04-28T03:30:47.316Z,52.30
2023-04-28T03:33:16.166Z,50.70
2023-04-28T03:35:44.827Z,54.00
2023-04-28T03:38:13.480Z,54.10
2023-04-28T03:40:42.403Z,53.10
2023-04-28T03:43:11.150Z,57.10
2023-04-28T03:45:41.152Z,49.70
2023-04-28T03:48:09.848Z,51.50
2023-04-28T03:50:40.927Z,50.40
2023-04-28T03:53:09.618Z,52.70
2023-04-28T03:55:38.728Z,51.80
2023-04-28T03:58:07.391Z,56.70
2023-04-28T04:00:36.103Z,58.00
2023-04-28T04:03:04.832Z,54.70
2023-04-28T04:05:33.802Z,54.90
2023-04-28T04:08:03.198Z,58.10
2023-04-28T04:10:31.911Z,55.00
2023-04-28T04:13:00.591Z,54.20
2023-04-28T04:15:29.365Z,44.60
2023-04-28T04:17:58.391Z,55.60
2023-04-28T04:20:27.240Z,49.20
2023-04-28T04:22:55.954Z,52.70
2023-04-28T04:25:24.615Z,56.10
2023-04-28T04:27:53.280Z,46.10
2023-04-28T04:30:22.255Z,52.50
2023-04-28T04:32:51.172Z,62.80
2023-04-28T04:35:19.949Z,57.80
2023-04-28T04:37:48.762Z,56.80
2023-04-28T04:40:17.455Z,65.50
2023-04-28T04:42:46.116Z,73.70
2023-04-28T04:45:14.777Z,65.00
2023-04-28T04:47:44.036Z,62.90
2023-04-28T04:50:12.833Z,49.40
2023-04-28T04:52:41.578Z,44.30
2023-04-28T04:55:11.368Z,46.50
2023-04-28T04:57:40.053Z,52.40
2023-04-28T05:00:09.758Z,56.60
2023-04-28T05:02:38.730Z,59.90
2023-04-28T05:05:20.440Z,43.90
2023-04-28T05:07:51.220Z,38.80
2023-04-28T05:10:20.050Z,42.50
2023-04-28T05:12:49.280Z,43.10
2023-04-28T05:15:18.381Z,46.30
2023-04-28T05:17:47.136Z,38.90
2023-04-28T05:20:16.135Z,41.80
2023-04-28T05:22:44.781Z,43.60
2023-04-28T05:25:13.504Z,51.10
2023-04-28T05:27:42.235Z,36.90
2023-04-28T05:30:11.046Z,38.80
2023-04-28T05:32:39.753Z,46.10
2023-04-28T05:35:08.786Z,37.30
2023-04-28T05:37:38.185Z,49.00
2023-04-28T05:40:08.008Z,43.50
2023-04-28T05:42:36.664Z,45.50
2023-04-28T05:45:06.936Z,45.60
2023-04-28T05:47:35.832Z,38.00
2023-04-28T05:50:05.006Z,40.80
2023-04-28T05:52:33.665Z,19.00
2023-04-28T05:55:02.425Z,34.90
2023-04-28T05:57:33.917Z,29.80
2023-04-28T06:00:11.731Z,23.80
2023-04-28T06:02:40.600Z,25.90
2023-04-28T06:05:09.648Z,22.10
2023-04-28T06:07:38.767Z,22.90
2023-04-28T06:10:07.969Z,33.80
2023-04-28T06:12:37.455Z,22.50
2023-04-28T06:15:06.861Z,21.10
2023-04-28T06:17:35.623Z,21.80
2023-04-28T06:20:05.030Z,20.40
2023-04-28T06:22:33.706Z,20.30
2023-04-28T06:25:02.781Z,18.40
2023-04-28T06:27:32.996Z,15.60
2023-04-28T06:30:01.687Z,15.80
2023-04-28T06:32:30.388Z,22.30
2023-04-28T06:34:59.188Z,23.80
2023-04-28T06:37:27.918Z,19.30
2023-04-28T06:39:56.565Z,16.80
2023-04-28T06:42:26.468Z,18.70
2023-04-28T06:44:56.056Z,19.90
2023-04-28T06:47:24.863Z,21.10
2023-04-28T06:49:54.065Z,16.90
2023-04-28T06:52:27.200Z,15.10
2023-04-28T06:55:01.748Z,14.80
2023-04-28T06:57:30.554Z,15.70
2023-04-28T06:59:59.210Z,12.80
2023-04-28T07:02:28.086Z,13.40
2023-04-28T07:04:57.099Z,14.90
2023-04-28T07:07:26.620Z,17.30
2023-04-28T07:09:55.869Z,14.80
2023-04-28T07:12:24.599Z,14.10
2023-04-28T07:14:53.337Z,13.70
2023-04-28T07:17:21.988Z,10.90
2023-04-28T07:19:53.558Z,12.60
2023-04-28T07:22:22.256Z,9.80
2023-04-28T07:24:51.019Z,10.30
2023-04-28T07:27:19.710Z,8.40
2023-04-28T07:29:48.388Z,15.40
2023-04-28T07:32:17.267Z,11.50
2023-04-28T07:34:46.599Z,7.70
2023-04-28T07:37:16.125Z,10.30
2023-04-28T07:39:44.792Z,11.30
2023-04-28T07:42:13.526Z,6.90
2023-04-28T07:44:42.476Z,13.10
2023-04-28T07:47:11.392Z,5.40
2023-04-28T07:49:40.054Z,14.80
2023-04-28T07:52:09.838Z,9.90
2023-04-28T07:54:38.587Z,7.50
2023-04-28T07:57:07.515Z,8.70
2023-04-28T07:59:36.255Z,7.50
2023-04-28T08:02:06.095Z,8.70
2023-04-28T08:04:38.216Z,9.60
2023-04-28T08:07:08.775Z,5.90
2023-04-28T08:09:37.498Z,6.40
2023-04-28T08:12:06.221Z,7.90
2023-04-28T08:14:35.802Z,7.00
2023-04-28T08:17:04.555Z,5.60
2023-04-28T08:19:33.438Z,10.60
2023-04-28T08:22:05.916Z,4.40
2023-04-28T08:24:34.877Z,10.10
2023-04-28T08:27:04.086Z,7.90
2023-04-28T08:29:33.176Z,5.70
2023-04-28T08:32:02.328Z,12.20
2023-04-28T08:34:31.219Z,7.00
2023-04-28T08:37:00.473Z,7.90
2023-04-28T08:39:29.364Z,5.90
2023-04-28T08:41:58.230Z,6.70
2023-04-28T08:44:27.013Z,8.70
2023-04-28T08:46:59.736Z,6.60
2023-04-28T08:49:36.265Z,9.90
2023-04-28T08:52:16.830Z,8.40
2023-04-28T08:54:49.196Z,8.50
2023-04-28T08:57:20.703Z,7.90
2023-04-28T08:59:49.853Z,8.40
2023-04-28T09:02:19.705Z,9.10
2023-04-28T09:04:48.732Z,10.80
2023-04-28T09:07:17.827Z,7.70
2023-04-28T09:09:46.570Z,11.70
2023-04-28T09:12:15.894Z,6.70
2023-04-28T09:14:44.586Z,11.60
2023-04-28T09:17:14.483Z,6.60
2023-04-28T09:19:43.610Z,8.20
2023-04-28T09:22:24.899Z,7.80
2023-04-28T09:24:55.883Z,10.00
2023-04-28T09:27:29.077Z,9.30
2023-04-28T09:29:57.879Z,6.60
2023-04-28T09:32:28.391Z,10.90
2023-04-28T09:34:57.672Z,8.10
2023-04-28T09:37:30.586Z,11.70
2023-04-28T09:40:10.533Z,12.80
2023-04-28T09:42:45.030Z,10.80
2023-04-28T09:45:15.551Z,8.90
2023-04-28T09:47:47.009Z,10.30
2023-04-28T09:50:18.333Z,7.60
2023-04-28T09:52:57.681Z,7.90
2023-04-28T09:55:28.524Z,10.70
2023-04-28T09:58:02.910Z,10.90
2023-04-28T10:00:34.045Z,12.20
2023-04-28T10:03:03.430Z,10.40
2023-04-28T10:05:33.808Z,7.50
2023-04-28T10:08:03.707Z,6.90
2023-04-28T10:10:33.380Z,7.50
2023-04-28T10:13:03.094Z,11.00
2023-04-28T10:15:32.854Z,9.70
2023-04-28T10:18:03.948Z,10.00
2023-04-28T10:20:32.915Z,13.10
2023-04-28T10:23:20.700Z,6.40
2023-04-28T10:25:57.204Z,7.70
2023-04-28T10:28:26.860Z,10.70
2023-04-28T10:31:14.432Z,8.40
2023-04-28T10:33:44.733Z,8.90
2023-04-28T10:36:54.617Z,11.80
2023-04-28T10:39:23.340Z,9.60
2023-04-28T10:41:52.036Z,13.80
2023-04-28T10:44:33.219Z,12.10
2023-04-28T10:47:09.736Z,10.40
2023-04-28T10:50:03.203Z,10.60
2023-04-28T10:52:38.547Z,9.80
2023-04-28T10:55:27.011Z,10.70
2023-04-28T10:58:20.693Z,10.30
2023-04-28T11:00:50.937Z,10.10
2023-04-28T11:03:50.163Z,9.60
2023-04-28T11:06:21.478Z,8.10
2023-04-28T11:08:50.265Z,13.30
2023-04-28T11:11:21.615Z,11.40
2023-04-28T11:13:50.749Z,10.90
2023-04-28T11:16:22.034Z,10.40
2023-04-28T11:19:06.159Z,9.70
2023-04-28T11:21:35.517Z,8.40
2023-04-28T11:24:09.565Z,7.10
2023-04-28T11:26:39.442Z,14.40
2023-04-28T11:29:09.193Z,10.20
2023-04-28T11:31:38.648Z,10.20
2023-04-28T11:34:17.233Z,11.80
2023-04-28T11:36:46.051Z,9.20
2023-04-28T11:39:15.412Z,12.00
2023-04-28T11:41:45.458Z,10.80
2023-04-28T11:44:16.710Z,8.20
2023-04-28T11:46:51.661Z,11.80
2023-04-28T11:49:21.357Z,6.00
2023-04-28T11:51:52.012Z,7.00
2023-04-28T11:54:26.273Z,9.50
2023-04-28T11:56:57.475Z,5.70
2023-04-28T11:59:37.800Z,12.00
2023-04-28T12:02:07.978Z,4.70
2023-04-28T12:04:42.564Z,10.20
2023-04-28T12:07:16.358Z,11.00
2023-04-28T12:09:49.440Z,13.10
2023-04-28T12:12:40.550Z,9.80
2023-04-28T12:15:20.692Z,9.50
2023-04-28T12:17:51.254Z,9.10
2023-04-28T12:20:35.901Z,9.60
2023-04-28T12:23:05.925Z,11.70
2023-04-28T12:25:44.371Z,8.90
2023-04-28T12:28:13.202Z,8.90
2023-04-28T12:30:44.461Z,9.50
2023-04-28T12:33:27.502Z,10.80
2023-04-28T12:35:57.741Z,8.40
2023-04-28T12:38:28.328Z,12.30
2023-04-28T12:40:57.437Z,10.30
2023-04-28T12:43:27.242Z,10.60
2023-04-28T12:45:56.932Z,9.00
2023-04-28T12:48:25.764Z,7.10
2023-04-28T12:50:54.455Z,7.90
2023-04-28T12:53:23.121Z,8.30
2023-04-28T12:55:52.338Z,6.90
2023-04-28T12:58:21.442Z,15.80
2023-04-28T13:00:50.089Z,18.10
2023-04-28T13:03:20.008Z,8.30
2023-04-28T13:05:48.873Z,11.70
2023-04-28T13:08:17.638Z,6.30
2023-04-28T13:10:46.459Z,7.10
2023-04-28T13:13:15.131Z,8.20
2023-04-28T13:15:43.828Z,8.90
2023-04-28T13:18:12.513Z,8.60
2023-04-28T13:20:41.169Z,8.60
2023-04-28T13:23:09.868Z,4.70
2023-04-28T13:25:38.551Z,9.60
2023-04-28T13:28:07.265Z,8.20
2023-04-28T13:30:35.955Z,5.30
2023-04-28T13:33:04.650Z,7.80
2023-04-28T13:35:33.458Z,4.80
2023-04-28T13:38:02.170Z,6.50
2023-04-28T13:40:31.365Z,8.60
2023-04-28T13:43:00.132Z,5.90
2023-04-28T13:45:29.031Z,7.80
2023-04-28T13:47:58.089Z,7.80
2023-04-28T13:50:26.872Z,8.30
2023-04-28T13:52:55.540Z,12.00
2023-04-28T13:55:27.834Z,8.20
2023-04-28T13:57:57.180Z,7.80
2023-04-28T14:00:26.082Z,4.10
2023-04-28T14:02:55.018Z,6.70
2023-04-28T14:05:24.015Z,5.10
2023-04-28T14:07:56.058Z,6.10
2023-04-28T14:10:24.729Z,5.00
2023-04-28T14:12:53.395Z,15.60
2023-04-28T14:15:22.784Z,6.80
2023-04-28T14:17:51.503Z,6.60
2023-04-28T14:20:20.372Z,6.00
2023-04-28T14:22:49.273Z,10.00
2023-04-28T14:25:21.471Z,6.20
2023-04-28T14:27:50.991Z,7.70
2023-04-28T14:30:21.928Z,7.30
2023-04-28T14:32:50.590Z,6.00
2023-04-28T14:35:21.519Z,12.00
2023-04-28T14:37:51.708Z,4.30
2023-04-28T14:40:20.510Z,6.90
2023-04-28T14:42:49.151Z,5.80
2023-04-28T14:45:17.859Z,5.90
2023-04-28T14:47:46.971Z,8.60
2023-04-28T14:50:15.903Z,7.90
2023-04-28T14:52:44.615Z,12.90
2023-04-28T14:55:13.824Z,5.90
2023-04-28T14:57:42.774Z,9.40
2023-04-28T15:00:12.389Z,6.60
2023-04-28T15:02:41.297Z,17.70
2023-04-28T15:05:11.682Z,9.20
2023-04-28T15:07:40.993Z,6.50
2023-04-28T15:10:09.778Z,7.10
2023-04-28T15:12:38.458Z,4.80
2023-04-28T15:15:07.862Z,6.30
2023-04-28T15:17:36.525Z,9.20
2023-04-28T15:20:06.512Z,7.20
2023-04-28T15:22:36.606Z,7.10
2023-04-28T15:25:05.949Z,5.90
2023-04-28T15:27:34.693Z,6.20
2023-04-28T15:30:04.407Z,4.40
2023-04-28T15:32:33.159Z,6.10
2023-04-28T15:35:02.912Z,8.70
2023-04-28T15:37:37.648Z,7.90
2023-04-28T15:40:07.290Z,6.90
2023-04-28T15:42:36.232Z,5.70
2023-04-28T15:45:07.344Z,5.20
2023-04-28T15:47:36.832Z,10.70
2023-04-28T15:50:06.875Z,7.70
2023-04-28T15:52:38.636Z,9.90
2023-04-28T15:55:08.465Z,7.20
2023-04-28T15:57:37.320Z,6.30
2023-04-28T16:00:07.170Z,5.60
2023-04-28T16:02:37.709Z,10.50
2023-04-28T16:05:07.244Z,8.00
2023-04-28T16:07:40.936Z,6.10
2023-04-28T16:10:14.427Z,5.00
2023-04-28T16:12:43.240Z,5.30
2023-04-28T16:15:13.153Z,13.20
2023-04-28T16:17:42.729Z,6.30
2023-04-28T16:20:12.171Z,4.70
2023-04-28T16:22:41.303Z,5.80
2023-04-28T16:25:11.009Z,6.60
2023-04-28T16:27:40.604Z,13.30
2023-04-28T16:30:10.011Z,4.10
2023-04-28T16:32:40.548Z,11.60
2023-04-28T16:35:14.534Z,4.70
2023-04-28T16:37:44.635Z,4.70
2023-04-28T16:40:14.184Z,6.70
2023-04-28T16:42:45.019Z,4.00
2023-04-28T16:45:13.888Z,7.90
2023-04-28T16:47:43.503Z,5.10
2023-04-28T16:50:16.603Z,9.30
2023-04-28T16:52:45.360Z,4.80
2023-04-28T16:55:14.052Z,5.50
2023-04-28T16:57:42.980Z,8.40
2023-04-28T17:00:12.191Z,5.30
2023-04-28T17:02:41.014Z,4.10
2023-04-28T17:05:10.428Z,3.20
2023-04-28T17:07:39.132Z,4.20
2023-04-28T17:10:08.362Z,4.50
2023-04-28T17:12:37.105Z,6.50
2023-04-28T17:15:07.601Z,5.80
2023-04-28T17:17:37.469Z,7.70
2023-04-28T17:20:07.044Z,4.20
2023-04-28T17:22:35.724Z,8.60
2023-04-28T17:25:04.946Z,6.10
2023-04-28T17:27:34.212Z,7.50
2023-04-28T17:30:03.422Z,8.30
2023-04-28T17:32:32.862Z,12.80
2023-04-28T17:35:01.574Z,13.80
2023-04-28T17:37:32.821Z,7.90
2023-04-28T17:40:01.943Z,8.60
2023-04-28T17:42:31.926Z,5.00
2023-04-28T17:45:00.782Z,13.30
2023-04-28T17:47:29.480Z,18.30
2023-04-28T17:49:58.128Z,14.10
2023-04-28T17:52:26.780Z,13.20
2023-04-28T17:54:56.814Z,13.60
2023-04-28T17:57:25.570Z,11.30
2023-04-28T17:59:54.328Z,11.30
2023-04-28T18:02:22.978Z,9.40
2023-04-28T18:04:51.996Z,10.90
2023-04-28T18:07:21.155Z,12.60
2023-04-28T18:09:49.901Z,8.10
2023-04-28T18:12:18.678Z,11.00
2023-04-28T18:14:47.673Z,9.40
2023-04-28T18:17:16.365Z,9.70
2023-04-28T18:19:45.336Z,8.40
2023-04-28T18:22:13.973Z,13.60
2023-04-28T18:24:42.908Z,15.20
2023-04-28T18:27:11.571Z,13.20
2023-04-28T18:29:40.398Z,24.00
2023-04-28T18:32:10.906Z,21.80
2023-04-28T18:34:41.479Z,22.80
2023-04-28T18:37:10.955Z,21.80
2023-04-28T18:39:39.657Z,25.90
2023-04-28T18:42:09.942Z,21.20
2023-04-28T18:44:38.610Z,27.10
2023-04-28T18:47:07.437Z,25.50
2023-04-28T18:49:38.036Z,21.00
2023-04-28T18:52:07.037Z,20.10
2023-04-28T18:54:35.710Z,26.20
2023-04-28T18:57:05.096Z,22.70
2023-04-28T18:59:33.730Z,19.20
2023-04-28T19:02:03.598Z,18.80
2023-04-28T19:04:32.404Z,20.10
2023-04-28T19:07:01.303Z,27.20
2023-04-28T19:09:31.260Z,17.70
2023-04-28T19:11:59.939Z,20.60
2023-04-28T19:14:28.665Z,16.10
2023-04-28T19:17:00.992Z,17.40
2023-04-28T19:19:30.179Z,15.50
2023-04-28T19:21:58.849Z,17.30
2023-04-28T19:24:29.390Z,17.90
2023-04-28T19:27:01.278Z,19.40
2023-04-28T19:29:30.002Z,17.80
2023-04-28T19:31:58.671Z,15.30
2023-04-28T19:34:28.475Z,15.00
2023-04-28T19:36:58.899Z,19.80
2023-04-28T19:39:29.240Z,19.70
2023-04-28T19:41:58.616Z,17.80
2023-04-28T19:44:27.924Z,20.20
2023-04-28T19:46:56.700Z,17.00
2023-04-28T19:49:25.358Z,21.80
2023-04-28T19:51:54.083Z,13.50
2023-04-28T19:54:23.587Z,15.70
2023-04-28T19:56:55.843Z,14.70
2023-04-28T19:59:24.579Z,15.40
2023-04-28T20:01:53.618Z,16.50
2023-04-28T20:04:22.579Z,13.60
2023-04-28T20:06:51.730Z,14.90
2023-04-28T20:09:20.460Z,16.30
2023-04-28T20:11:49.551Z,16.60
2023-04-28T20:14:19.455Z,16.10
2023-04-28T20:16:48.200Z,15.30
2023-04-28T20:19:17.172Z,13.80
2023-04-28T20:21:45.912Z,15.60
2023-04-28T20:24:14.751Z,16.00
2023-04-28T20:26:43.457Z,18.30
2023-04-28T20:29:12.147Z,19.90
2023-04-28T20:31:40.860Z,12.90
2023-04-28T20:34:09.573Z,15.00
2023-04-28T20:36:39.997Z,14.90
2023-04-28T20:39:11.665Z,12.50
2023-04-28T20:41:43.566Z,13.60
2023-04-28T20:44:12.248Z,18.80
2023-04-28T20:46:41.113Z,18.00
2023-04-28T20:49:10.962Z,14.30
2023-04-28T20:51:45.283Z,17.40
2023-04-28T20:54:14.134Z,16.40
2023-04-28T20:56:43.017Z,13.80
2023-04-28T20:59:12.495Z,12.60
2023-04-28T21:01:41.342Z,17.50
2023-04-28T21:04:10.395Z,13.60
2023-04-28T21:06:39.175Z,18.30
2023-04-28T21:09:07.864Z,12.40
2023-04-28T21:11:36.508Z,23.10
2023-04-28T21:14:05.161Z,19.70
2023-04-28T21:16:33.999Z,12.80
2023-04-28T21:19:03.323Z,14.00
2023-04-28T21:21:33.746Z,12.20
2023-04-28T21:24:02.581Z,10.80
2023-04-28T21:26:31.651Z,15.70
2023-04-28T21:29:00.357Z,16.60
2023-04-28T21:31:29.351Z,22.20
2023-04-28T21:33:58.063Z,23.20
2023-04-28T21:36:26.867Z,23.30
2023-04-28T21:38:55.705Z,27.70
2023-04-28T21:41:25.532Z,26.50
2023-04-28T21:43:55.028Z,27.00
2023-04-28T21:46:24.062Z,31.00
2023-04-28T21:48:52.793Z,26.00
2023-04-28T21:51:21.441Z,26.80
2023-04-28T21:53:50.077Z,27.00
2023-04-28T21:56:18.912Z,27.20
2023-04-28T21:58:47.600Z,23.10
2023-04-28T22:01:18.314Z,18.60
2023-04-28T22:03:47.828Z,21.50
2023-04-28T22:06:16.743Z,17.80
2023-04-28T22:08:46.601Z,17.60
2023-04-28T22:11:15.276Z,16.90
2023-04-28T22:13:43.946Z,20.90
2023-04-28T22:16:13.404Z,14.00
2023-04-28T22:18:42.208Z,22.20
2023-04-28T22:21:11.422Z,18.10
2023-04-28T22:23:40.124Z,17.30
2023-04-28T22:26:08.753Z,18.30
2023-04-28T22:28:37.809Z,21.40
2023-04-28T22:31:06.675Z,27.60
2023-04-28T22:33:35.470Z,36.30
2023-04-28T22:36:05.174Z,39.80
2023-04-28T22:38:33.874Z,45.90
2023-04-28T22:41:02.799Z,34.20
2023-04-28T22:43:31.441Z,28.00
2023-04-28T22:46:00.135Z,25.20
2023-04-28T22:48:28.786Z,28.70
2023-04-28T22:50:57.451Z,41.60
2023-04-28T22:53:26.120Z,41.60
2023-04-28T22:55:56.775Z,44.10
2023-04-28T22:58:25.521Z,39.00
2023-04-28T23:00:54.190Z,42.60
2023-04-28T23:03:23.383Z,55.30
2023-04-28T23:05:52.269Z,59.30
2023-04-28T23:08:20.932Z,59.40
2023-04-28T23:10:49.580Z,52.60
2023-04-28T23:13:18.319Z,60.20
2023-04-28T23:15:47.116Z,52.30
2023-04-28T23:18:15.780Z,42.70
2023-04-28T23:20:47.876Z,39.80
2023-04-28T23:23:16.722Z,43.10
2023-04-28T23:25:45.386Z,41.20
2023-04-28T23:28:14.110Z,49.10
2023-04-28T23:30:43.724Z,64.10
2023-04-28T23:33:12.406Z,66.10
2023-04-28T23:35:41.981Z,55.40
2023-04-28T23:38:10.645Z,51.20
2023-04-28T23:40:39.342Z,48.10
2023-04-28T23:43:08.362Z,51.90
2023-04-28T23:45:37.095Z,50.80
2023-04-28T23:48:06.853Z,57.00
2023-04-28T23:50:35.527Z,35.80
2023-04-28T23:53:04.441Z,38.10
2023-04-28T23:55:33.117Z,27.20
2023-04-28T23:58:01.766Z,27.60
